Vidalia, GA (30474)

8:29 PM EDT on July 29, 2016 (GMT -0400)
Oxley Dr., VHS | | Change Station

Elev 279 ft 32.23 °N, 82.44 °W | Updated 16 seconds ago

Mostly Cloudy
Mostly Cloudy
92.3 °F
Feels Like 98 °F
N
0.0
Wind Variable Wind from NNW
Gusts 0.0 mph

Today
High -- | Low -- °F
--% Chance of Precip.
Yesterday
High -- | Low -- °F
Precip. -- in
Pressure 29.96 in
Visibility 10.0 miles
Clouds Mostly Cloudy 8000 ft
Heat Index 98 °F
Dew Point 70 °F
Humidity 48%
Rainfall 0.00 in
Snow Depth Not available.
6:42 AM 8:28 PM
Waning Crescent, 18% visible
METAR KVDI 300015Z AUTO 24004KT 10SM BKN080 35/17 A2996 RMK AO2
Pressure 29.96 in
Visibility 10.0 miles
Clouds Mostly Cloudy 8000 ft
Heat Index 98 °F
Dew Point 70 °F
Humidity 48%
Rainfall 0.00 in
Snow Depth Not available.
6:42 AM 8:28 PM
Waning Crescent, 18% visible
METAR KVDI 300015Z AUTO 24004KT 10SM BKN080 35/17 A2996 RMK AO2

10-Day Weather Forecast

Almanac

Astronomy

Jul. 29, 2016 Rise Set
Actual Time
Civil Twilight
Nautical Twilight
Astronomical Twilight
Moon
Length of Visible Light
Length of Day
Tomorrow will be .
, % of the Moon is Illuminated

Today's Extremes

State Highs State Lows

Community

WunderPhotos

Upload Photos

1,928,449 photos uploaded!

WunderBlog® & News

Nearby

Air Quality

  Air Quality AQ Index Pollutant
Not available.

Snow Depth

Station Depth Elevation

Earthquake Activity

City Distance Mag. Time & Date
Minimum magnitude displayed is 2.5.

Coastal Water Temperatures

Place Temperature

Stations

Nearby Weather Stations

Station Location Temp. Windchill Dew Point Humidity Wind Precip. Elev Updated Type
                   

Watches & Warnings

There are currently no watches in effect.